METAR Data
IDs: Format: Raw Decoded Include TAF

Data at: 2336 UTC 26 Feb 2020

NZAA 262300Z AUTO 22004KT 170V260 9999 FEW029/// BKN038/// BKN047/// 23/17 Q1016 NOSIG
NZAA 262230Z AUTO 19003KT 9999 SCT026/// BKN031/// 22/17 Q1016 NOSIG
NZAA 262200Z AUTO 17004KT 130V240 9999 VCSH FEW023/// BKN035/// BKN043/// 23/17 Q1016 NOSIG
NZAA 262130Z AUTO 12002KT 9999 -SHRA BKN035/// OVC050/// 22/16 Q1016 TEMPO 6000 SHRA
NZAA 262100Z AUTO 35002KT 9999 BKN034/// OVC041/// 21/16 Q1016 NOSIG

TAF NZAA 262322Z 2700/2800 22010KT 9999 -SHRA SCT030
  FM271000 16005KT 9999 SCT015 BKN025
  FM272300 23010KT 9999 BKN025